sensor_id;sensor_type;location;lat;lon;timestamp;pressure;altitude;pressure_sealevel;temperature;humidity
73558;BME280;61829;53.286;10.434;2022-08-19T15:02:21;101020.69;;;23.44;71.17
73558;BME280;61829;53.286;10.434;2022-08-19T15:04:48;101021.56;;;23.54;69.88
73558;BME280;61829;53.286;10.434;2022-08-19T15:07:14;101027.41;;;23.63;69.39
73558;BME280;61829;53.286;10.434;2022-08-19T15:09:40;101023.09;;;23.72;67.81
73558;BME280;61829;53.286;10.434;2022-08-19T15:12:08;101021.47;;;23.82;67.46
73558;BME280;61829;53.286;10.434;2022-08-19T15:14:36;101021.75;;;23.85;67.54
73558;BME280;61829;53.286;10.434;2022-08-19T15:17:04;101030.84;;;23.86;67.96
73558;BME280;61829;53.286;10.434;2022-08-19T15:19:31;101036.66;;;23.89;67.98
73558;BME280;61829;53.286;10.434;2022-08-19T15:21:58;101030.06;;;23.95;66.68
73558;BME280;61829;53.286;10.434;2022-08-19T15:24:24;101032.81;;;23.95;66.85
73558;BME280;61829;53.286;10.434;2022-08-19T15:26:53;101027.06;;;24.02;67.71
73558;BME280;61829;53.286;10.434;2022-08-19T15:29:21;101028.69;;;24.03;67.12
73558;BME280;61829;53.286;10.434;2022-08-19T15:31:51;101026.81;;;24.04;67.15
73558;BME280;61829;53.286;10.434;2022-08-19T15:34:21;101017.16;;;24.01;66.86
73558;BME280;61829;53.286;10.434;2022-08-19T15:36:48;101025.34;;;23.91;66.42
73558;BME280;61829;53.286;10.434;2022-08-19T15:39:14;101026.69;;;23.83;67.03
73558;BME280;61829;53.286;10.434;2022-08-19T15:41:41;101036.88;;;23.83;67.56
73558;BME280;61829;53.286;10.434;2022-08-19T15:44:11;101031.38;;;23.83;67.31
73558;BME280;61829;53.286;10.434;2022-08-19T15:46:40;101031.94;;;23.85;67.34
73558;BME280;61829;53.286;10.434;2022-08-19T15:49:07;101031.94;;;23.85;67.32
73558;BME280;61829;53.286;10.434;2022-08-19T15:51:35;101033.06;;;23.84;67.21
73558;BME280;61829;53.286;10.434;2022-08-19T15:54:03;101031.09;;;23.79;67.20
73558;BME280;61829;53.286;10.434;2022-08-19T15:56:30;101026.38;;;23.74;68.25
73558;BME280;61829;53.286;10.434;2022-08-19T15:59:14;101029.94;;;23.70;67.95
73558;BME280;61829;53.286;10.434;2022-08-19T16:01:59;101031.84;;;23.69;67.69
73558;BME280;61829;53.286;10.434;2022-08-19T16:04:44;101023.59;;;23.69;67.94
73558;BME280;61829;53.286;10.434;2022-08-19T16:07:29;101026.31;;;23.64;68.16
73558;BME280;61829;53.286;10.434;2022-08-19T16:09:56;101033.44;;;23.60;68.11
73558;BME280;61829;53.286;10.434;2022-08-19T16:12:23;101031.50;;;23.56;68.38
73558;BME280;61829;53.286;10.434;2022-08-19T16:14:55;101029.56;;;23.56;68.28
73558;BME280;61829;53.286;10.434;2022-08-19T16:17:22;101023.50;;;23.54;67.58
73558;BME280;61829;53.286;10.434;2022-08-19T16:19:49;101024.03;;;23.51;67.67
73558;BME280;61829;53.286;10.434;2022-08-19T16:22:16;101015.50;;;23.47;68.25
73558;BME280;61829;53.286;10.434;2022-08-19T16:24:43;101026.72;;;23.41;67.78
73558;BME280;61829;53.286;10.434;2022-08-19T16:27:10;101034.97;;;23.36;68.38
73558;BME280;61829;53.286;10.434;2022-08-19T16:29:36;101027.78;;;23.35;68.38
73558;BME280;61829;53.286;10.434;2022-08-19T16:32:04;101032.16;;;23.30;68.21
73558;BME280;61829;53.286;10.434;2022-08-19T16:34:32;101026.69;;;23.30;68.50
73558;BME280;61829;53.286;10.434;2022-08-19T16:36:58;101027.25;;;23.33;68.02
73558;BME280;61829;53.286;10.434;2022-08-19T16:39:25;101032.16;;;23.30;67.84
73558;BME280;61829;53.286;10.434;2022-08-19T16:41:51;101024.13;;;23.24;68.32
73558;BME280;61829;53.286;10.434;2022-08-19T16:44:18;101030.16;;;23.21;67.96
73558;BME280;61829;53.286;10.434;2022-08-19T16:46:46;101023.03;;;23.20;68.63
73558;BME280;61829;53.286;10.434;2022-08-19T16:49:13;101031.28;;;23.20;68.42
73558;BME280;61829;53.286;10.434;2022-08-19T16:51:41;101015.88;;;23.19;67.61
73558;BME280;61829;53.286;10.434;2022-08-19T16:54:10;101021.06;;;23.15;67.59
73558;BME280;61829;53.286;10.434;2022-08-19T16:56:36;101023.50;;;23.12;68.47
73558;BME280;61829;53.286;10.434;2022-08-19T16:59:04;101020.75;;;23.12;68.46
73558;BME280;61829;53.286;10.434;2022-08-19T17:01:31;101022.13;;;23.09;68.35
73558;BME280;61829;53.286;10.434;2022-08-19T17:03:58;101017.72;;;23.08;68.34
73558;BME280;61829;53.286;10.434;2022-08-19T17:06:27;101018.25;;;23.05;68.64
73558;BME280;61829;53.286;10.434;2022-08-19T17:08:58;101022.34;;;23.02;68.75
73558;BME280;61829;53.286;10.434;2022-08-19T17:11:28;101024.53;;;23.00;68.78
73558;BME280;61829;53.286;10.434;2022-08-19T17:13:56;101033.59;;;22.96;68.41
73558;BME280;61829;53.286;10.434;2022-08-19T17:16:26;101037.91;;;22.92;69.61
73558;BME280;61829;53.286;10.434;2022-08-19T17:18:56;101039.25;;;22.89;69.36
73558;BME280;61829;53.286;10.434;2022-08-19T17:21:26;101042.28;;;22.88;69.26
73558;BME280;61829;53.286;10.434;2022-08-19T17:23:56;101036.44;;;22.84;69.24
73558;BME280;61829;53.286;10.434;2022-08-19T17:26:25;101037.53;;;22.83;69.59
73558;BME280;61829;53.286;10.434;2022-08-19T17:28:53;101034.50;;;22.79;69.05
73558;BME280;61829;53.286;10.434;2022-08-19T17:31:22;101025.69;;;22.77;69.50
73558;BME280;61829;53.286;10.434;2022-08-19T17:33:50;101022.13;;;22.77;69.48
73558;BME280;61829;53.286;10.434;2022-08-19T17:36:18;101027.03;;;22.75;69.26
73558;BME280;61829;53.286;10.434;2022-08-19T17:38:44;101024.28;;;22.75;69.52
73558;BME280;61829;53.286;10.434;2022-08-19T17:41:11;101026.16;;;22.69;69.75
73558;BME280;61829;53.286;10.434;2022-08-19T17:43:37;101020.59;;;22.64;70.03
73558;BME280;61829;53.286;10.434;2022-08-19T17:46:04;101022.28;;;22.65;69.86
73558;BME280;61829;53.286;10.434;2022-08-19T17:48:32;101024.69;;;22.61;69.95
73558;BME280;61829;53.286;10.434;2022-08-19T17:53:48;101019.97;;;22.52;70.18
73558;BME280;61829;53.286;10.434;2022-08-19T17:56:19;101013.59;;;22.46;70.80
73558;BME280;61829;53.286;10.434;2022-08-19T17:58:46;101007.25;;;22.46;70.76
73558;BME280;61829;53.286;10.434;2022-08-19T18:01:15;101009.72;;;22.42;70.54
73558;BME280;61829;53.286;10.434;2022-08-19T18:03:41;101010.47;;;22.37;71.01
73558;BME280;61829;53.286;10.434;2022-08-19T18:06:09;101012.91;;;22.34;70.62
73558;BME280;61829;53.286;10.434;2022-08-19T18:08:36;101012.03;;;22.28;70.94
73558;BME280;61829;53.286;10.434;2022-08-19T18:11:07;101008.13;;;22.24;70.92
73558;BME280;61829;53.286;10.434;2022-08-19T18:13:34;101008.94;;;22.19;70.98
73558;BME280;61829;53.286;10.434;2022-08-19T18:16:02;101006.09;;;22.14;71.09
73558;BME280;61829;53.286;10.434;2022-08-19T18:18:29;101000.78;;;22.08;71.06
73558;BME280;61829;53.286;10.434;2022-08-19T18:20:56;101002.41;;;22.04;71.32
73558;BME280;61829;53.286;10.434;2022-08-19T18:23:22;101005.91;;;21.99;71.44
73558;BME280;61829;53.286;10.434;2022-08-19T18:25:49;101009.66;;;21.93;71.58
73558;BME280;61829;53.286;10.434;2022-08-19T18:28:15;101014.03;;;21.89;71.60
73558;BME280;61829;53.286;10.434;2022-08-19T18:30:42;101017.53;;;21.84;71.40
73558;BME280;61829;53.286;10.434;2022-08-19T18:33:08;101019.38;;;21.79;71.87
73558;BME280;61829;53.286;10.434;2022-08-19T18:35:41;101028.38;;;21.74;71.57
73558;BME280;61829;53.286;10.434;2022-08-19T18:38:12;101034.63;;;21.69;71.20
73558;BME280;61829;53.286;10.434;2022-08-19T18:41:21;101029.88;;;21.65;71.18
73558;BME280;61829;53.286;10.434;2022-08-19T18:44:06;101036.97;;;21.61;71.25
73558;BME280;61829;53.286;10.434;2022-08-19T18:46:50;101034.16;;;21.56;71.02
73558;BME280;61829;53.286;10.434;2022-08-19T18:49:35;101043.41;;;21.49;70.99
73558;BME280;61829;53.286;10.434;2022-08-19T18:52:01;101045.25;;;21.44;71.23
73558;BME280;61829;53.286;10.434;2022-08-19T18:54:28;101044.56;;;21.37;71.57
73558;BME280;61829;53.286;10.434;2022-08-19T18:56:55;101043.41;;;21.33;71.10
73558;BME280;61829;53.286;10.434;2022-08-19T18:59:23;101044.41;;;21.26;71.92
73558;BME280;61829;53.286;10.434;2022-08-19T19:01:50;101040.16;;;21.19;71.80
73558;BME280;61829;53.286;10.434;2022-08-19T19:04:20;101037.34;;;21.14;71.91
73558;BME280;61829;53.286;10.434;2022-08-19T19:06:46;101039.16;;;21.08;71.92
73558;BME280;61829;53.286;10.434;2022-08-19T19:09:15;101031.72;;;21.03;72.90
73558;BME280;61829;53.286;10.434;2022-08-19T19:11:48;101033.53;;;20.98;72.80
73558;BME280;61829;53.286;10.434;2022-08-19T19:14:23;101040.59;;;20.94;71.46
73558;BME280;61829;53.286;10.434;2022-08-19T19:16:50;101052.03;;;20.91;71.14
73558;BME280;61829;53.286;10.434;2022-08-19T19:19:16;101050.91;;;20.87;70.61
73558;BME280;61829;53.286;10.434;2022-08-19T19:21:45;101049.38;;;20.79;71.32
73558;BME280;61829;53.286;10.434;2022-08-19T19:24:20;101056.41;;;20.75;72.09
73558;BME280;61829;53.286;10.434;2022-08-19T19:26:49;101047.53;;;20.68;72.98
73558;BME280;61829;53.286;10.434;2022-08-19T19:29:17;101051.28;;;20.61;72.55
73558;BME280;61829;53.286;10.434;2022-08-19T19:31:44;101056.66;;;20.56;72.98
73558;BME280;61829;53.286;10.434;2022-08-19T19:34:12;101042.22;;;20.49;73.59
73558;BME280;61829;53.286;10.434;2022-08-19T19:36:39;101047.63;;;20.44;73.78
73558;BME280;61829;53.286;10.434;2022-08-19T19:39:06;101053.00;;;20.39;73.69
73558;BME280;61829;53.286;10.434;2022-08-19T19:41:33;101050.19;;;20.34;73.76
73558;BME280;61829;53.286;10.434;2022-08-19T19:44:02;101049.00;;;20.30;73.49
73558;BME280;61829;53.286;10.434;2022-08-19T19:46:30;101052.22;;;20.27;73.52
73558;BME280;61829;53.286;10.434;2022-08-19T19:48:58;101045.56;;;20.23;74.16
73558;BME280;61829;53.286;10.434;2022-08-19T19:51:27;101057.50;;;20.16;74.62
73558;BME280;61829;53.286;10.434;2022-08-19T19:53:55;101067.25;;;20.12;74.98
73558;BME280;61829;53.286;10.434;2022-08-19T19:56:22;101078.69;;;20.09;74.89
73558;BME280;61829;53.286;10.434;2022-08-19T19:58:49;101077.19;;;20.02;75.39
73558;BME280;61829;53.286;10.434;2022-08-19T20:01:16;101080.63;;;19.97;75.71
73558;BME280;61829;53.286;10.434;2022-08-19T20:03:42;101090.63;;;19.91;75.79
73558;BME280;61829;53.286;10.434;2022-08-19T20:06:11;101089.47;;;19.87;75.06
73558;BME280;61829;53.286;10.434;2022-08-19T20:08:37;101094.81;;;19.82;75.11
73558;BME280;61829;53.286;10.434;2022-08-19T20:11:30;101107.28;;;19.78;75.51
73558;BME280;61829;53.286;10.434;2022-08-19T20:13:59;101106.94;;;19.74;75.79
73558;BME280;61829;53.286;10.434;2022-08-19T20:16:27;101110.38;;;19.70;76.62
73558;BME280;61829;53.286;10.434;2022-08-19T20:18:54;101122.03;;;19.65;76.38
73558;BME280;61829;53.286;10.434;2022-08-19T20:21:22;101113.47;;;19.62;76.40
73558;BME280;61829;53.286;10.434;2022-08-19T20:23:49;101108.69;;;19.57;76.22
73558;BME280;61829;53.286;10.434;2022-08-19T20:26:15;101102.88;;;19.54;76.56
73558;BME280;61829;53.286;10.434;2022-08-19T20:28:43;101107.97;;;19.50;76.85
73558;BME280;61829;53.286;10.434;2022-08-19T20:31:09;101108.69;;;19.45;76.85
73558;BME280;61829;53.286;10.434;2022-08-19T20:33:35;101107.50;;;19.41;77.19
73558;BME280;61829;53.286;10.434;2022-08-19T20:36:01;101119.97;;;19.37;77.54
73558;BME280;61829;53.286;10.434;2022-08-19T20:38:28;101111.44;;;19.34;77.95
73558;BME280;61829;53.286;10.434;2022-08-19T20:40:55;101113.78;;;19.30;77.54
73558;BME280;61829;53.286;10.434;2022-08-19T20:43:21;101110.47;;;19.28;77.09
73558;BME280;61829;53.286;10.434;2022-08-19T20:45:47;101118.28;;;19.24;76.83
73558;BME280;61829;53.286;10.434;2022-08-19T20:48:13;101119.84;;;19.20;77.68
73558;BME280;61829;53.286;10.434;2022-08-19T20:50:39;101126.59;;;19.18;77.84
73558;BME280;61829;53.286;10.434;2022-08-19T20:53:14;101128.97;;;19.14;78.15
73558;BME280;61829;53.286;10.434;2022-08-19T20:55:46;101128.38;;;19.12;78.49
73558;BME280;61829;53.286;10.434;2022-08-19T20:58:16;101124.47;;;19.08;78.91
73558;BME280;61829;53.286;10.434;2022-08-19T21:00:42;101130.34;;;19.05;79.21
73558;BME280;61829;53.286;10.434;2022-08-19T21:03:12;101125.38;;;19.02;79.22
73558;BME280;61829;53.286;10.434;2022-08-19T21:05:39;101128.56;;;18.99;79.40
73558;BME280;61829;53.286;10.434;2022-08-19T21:08:05;101129.03;;;18.96;79.50
73558;BME280;61829;53.286;10.434;2022-08-19T21:10:34;101128.69;;;18.92;79.52
73558;BME280;61829;53.286;10.434;2022-08-19T21:13:00;101133.78;;;18.89;79.71
73558;BME280;61829;53.286;10.434;2022-08-19T21:15:28;101128.31;;;18.89;79.43
73558;BME280;61829;53.286;10.434;2022-08-19T21:17:55;101123.31;;;18.86;79.77
73558;BME280;61829;53.286;10.434;2022-08-19T21:20:22;101130.91;;;18.83;79.56
73558;BME280;61829;53.286;10.434;2022-08-19T21:22:48;101122.09;;;18.81;79.80
73558;BME280;61829;53.286;10.434;2022-08-19T21:25:16;101123.41;;;18.79;80.74
73558;BME280;61829;53.286;10.434;2022-08-19T21:27:42;101116.75;;;18.75;81.44
73558;BME280;61829;53.286;10.434;2022-08-19T21:30:11;101127.72;;;18.68;81.96
73558;BME280;61829;53.286;10.434;2022-08-19T21:32:37;101117.25;;;18.65;82.64
73558;BME280;61829;53.286;10.434;2022-08-19T21:35:04;101121.53;;;18.61;82.93
73558;BME280;61829;53.286;10.434;2022-08-19T21:37:30;101120.91;;;18.59;82.65
73558;BME280;61829;53.286;10.434;2022-08-19T21:39:59;101111.06;;;18.58;82.26
73558;BME280;61829;53.286;10.434;2022-08-19T21:42:25;101108.09;;;18.59;82.24
73558;BME280;61829;53.286;10.434;2022-08-19T21:44:51;101116.75;;;18.56;81.95
73558;BME280;61829;53.286;10.434;2022-08-19T21:47:17;101108.81;;;18.55;81.95
73558;BME280;61829;53.286;10.434;2022-08-19T21:49:43;101108.00;;;18.54;81.90
73558;BME280;61829;53.286;10.434;2022-08-19T21:52:09;101114.50;;;18.53;81.95
73558;BME280;61829;53.286;10.434;2022-08-19T21:54:35;101109.28;;;18.52;81.73
73558;BME280;61829;53.286;10.434;2022-08-19T21:57:02;101110.31;;;18.51;81.44
73558;BME280;61829;53.286;10.434;2022-08-19T21:59:28;101113.06;;;18.51;81.39
73558;BME280;61829;53.286;10.434;2022-08-19T22:01:54;101112.22;;;18.50;81.06
73558;BME280;61829;53.286;10.434;2022-08-19T22:04:20;101112.22;;;18.50;81.96
73558;BME280;61829;53.286;10.434;2022-08-19T22:06:46;101111.19;;;18.51;82.42
73558;BME280;61829;53.286;10.434;2022-08-19T22:09:14;101108.88;;;18.48;83.06
73558;BME280;61829;53.286;10.434;2022-08-19T22:11:40;101108.06;;;18.48;83.77
73558;BME280;61829;53.286;10.434;2022-08-19T22:14:06;101112.53;;;18.42;83.89
73558;BME280;61829;53.286;10.434;2022-08-19T22:16:32;101112.38;;;18.37;84.17
73558;BME280;61829;53.286;10.434;2022-08-19T22:18:59;101114.53;;;18.35;84.07
73558;BME280;61829;53.286;10.434;2022-08-19T22:21:25;101118.09;;;18.35;83.93
73558;BME280;61829;53.286;10.434;2022-08-19T22:23:51;101104.19;;;18.37;84.11
73558;BME280;61829;53.286;10.434;2022-08-19T22:26:18;101107.19;;;18.35;84.02
73558;BME280;61829;53.286;10.434;2022-08-19T22:28:44;101105.53;;;18.34;83.86
73558;BME280;61829;53.286;10.434;2022-08-19T22:31:10;101106.56;;;18.33;83.38
73558;BME280;61829;53.286;10.434;2022-08-19T22:33:36;101106.56;;;18.33;83.56
73558;BME280;61829;53.286;10.434;2022-08-19T22:36:04;101099.22;;;18.34;83.65
73558;BME280;61829;53.286;10.434;2022-08-19T22:38:33;101092.94;;;18.33;83.82
73558;BME280;61829;53.286;10.434;2022-08-19T22:40:59;101096.72;;;18.32;83.92
73558;BME280;61829;53.286;10.434;2022-08-19T22:43:29;101089.81;;;18.30;83.93
73558;BME280;61829;53.286;10.434;2022-08-19T22:45:57;101089.81;;;18.30;84.11
73558;BME280;61829;53.286;10.434;2022-08-19T22:48:26;101091.13;;;18.27;83.93
73558;BME280;61829;53.286;10.434;2022-08-19T22:50:53;101089.47;;;18.26;84.42
73558;BME280;61829;53.286;10.434;2022-08-19T22:53:41;101088.59;;;18.26;83.66
73558;BME280;61829;53.286;10.434;2022-08-19T22:56:08;101101.41;;;18.25;83.38
73558;BME280;61829;53.286;10.434;2022-08-19T22:58:35;101101.41;;;18.25;83.46
73558;BME280;61829;53.286;10.434;2022-08-19T23:01:02;101111.50;;;18.25;83.55
73558;BME280;61829;53.286;10.434;2022-08-19T23:03:28;101104.41;;;18.24;84.02
73558;BME280;61829;53.286;10.434;2022-08-19T23:06:12;101099.97;;;18.23;83.99
73558;BME280;61829;53.286;10.434;2022-08-19T23:08:42;101099.41;;;18.21;83.66
73558;BME280;61829;53.286;10.434;2022-08-19T23:11:09;101091.69;;;18.17;83.54
73558;BME280;61829;53.286;10.434;2022-08-19T23:13:39;101090.81;;;18.17;83.77
73558;BME280;61829;53.286;10.434;2022-08-19T23:16:06;101086.66;;;18.14;84.00
73558;BME280;61829;53.286;10.434;2022-08-19T23:18:33;101082.25;;;18.13;83.88
73558;BME280;61829;53.286;10.434;2022-08-19T23:21:00;101082.50;;;18.12;83.77
73558;BME280;61829;53.286;10.434;2022-08-19T23:23:26;101085.44;;;18.10;83.55
73558;BME280;61829;53.286;10.434;2022-08-19T23:25:54;101082.13;;;18.08;83.69
73558;BME280;61829;53.286;10.434;2022-08-19T23:28:21;101082.34;;;18.07;83.79
73558;BME280;61829;53.286;10.434;2022-08-19T23:31:08;101081.75;;;18.05;83.41
73558;BME280;61829;53.286;10.434;2022-08-19T23:33:37;101089.31;;;18.03;83.70
73558;BME280;61829;53.286;10.434;2022-08-19T23:36:16;101090.38;;;18.02;83.73
73558;BME280;61829;53.286;10.434;2022-08-19T23:38:43;101088.94;;;17.99;83.67
73558;BME280;61829;53.286;10.434;2022-08-19T23:41:11;101090.00;;;17.98;83.74
73558;BME280;61829;53.286;10.434;2022-08-19T23:43:38;101088.31;;;17.97;83.80
73558;BME280;61829;53.286;10.434;2022-08-19T23:46:08;101089.41;;;17.96;83.62
73558;BME280;61829;53.286;10.434;2022-08-19T23:48:35;101089.59;;;17.94;83.77
73558;BME280;61829;53.286;10.434;2022-08-19T23:51:07;101087.13;;;17.93;84.25
73558;BME280;61829;53.286;10.434;2022-08-19T23:53:34;101085.31;;;17.87;83.69
73558;BME280;61829;53.286;10.434;2022-08-19T23:56:04;101077.97;;;17.87;83.97
73558;BME280;61829;53.286;10.434;2022-08-19T23:58:34;101078.41;;;17.84;84.73
